createdAt,value
2023-01-03T00:00:02.472Z,0.00
2023-01-03T00:01:02.359Z,0.00
2023-01-03T00:02:02.346Z,0.00
2023-01-03T00:03:02.301Z,0.00
2023-01-03T00:04:02.312Z,0.00
2023-01-03T00:05:02.266Z,0.00
2023-01-03T00:06:02.233Z,0.00
2023-01-03T00:07:02.143Z,0.00
2023-01-03T00:08:02.102Z,0.00
2023-01-03T00:09:02.088Z,0.00
2023-01-03T00:10:02.042Z,0.00
2023-01-03T00:11:01.997Z,0.00
2023-01-03T00:12:02.035Z,0.00
2023-01-03T00:13:01.938Z,0.00
2023-01-03T00:14:01.910Z,0.00
2023-01-03T00:15:01.885Z,0.00
2023-01-03T00:16:01.873Z,0.00
2023-01-03T00:17:01.844Z,0.00
2023-01-03T00:18:01.835Z,0.00
2023-01-03T00:19:01.751Z,0.00
2023-01-03T00:20:01.723Z,0.00
2023-01-03T00:21:01.670Z,0.00
2023-01-03T00:22:01.649Z,0.00
2023-01-03T00:23:01.655Z,0.00
2023-01-03T00:24:01.571Z,0.00
2023-01-03T00:25:01.539Z,0.00
2023-01-03T00:26:01.517Z,0.00
2023-01-03T00:27:01.492Z,0.00
2023-01-03T00:28:01.436Z,0.00
2023-01-03T00:29:01.463Z,0.00
2023-01-03T00:30:01.398Z,0.00
2023-01-03T00:31:01.386Z,0.00
2023-01-03T00:32:01.299Z,0.00
2023-01-03T00:33:01.260Z,0.00
2023-01-03T00:34:01.236Z,0.00
2023-01-03T00:35:05.001Z,0.00
2023-01-03T00:36:01.193Z,0.00
2023-01-03T00:37:01.135Z,0.00
2023-01-03T00:38:01.106Z,0.00
2023-01-03T00:39:01.143Z,0.00
2023-01-03T00:40:01.031Z,0.00
2023-01-03T00:41:01.059Z,0.00
2023-01-03T00:42:00.950Z,0.00
2023-01-03T00:43:00.945Z,0.00
2023-01-03T00:44:00.898Z,0.00
2023-01-03T00:45:00.867Z,0.00
2023-01-03T00:46:00.863Z,0.00
2023-01-03T00:47:00.883Z,0.00
2023-01-03T00:48:00.754Z,0.00
2023-01-03T00:49:00.726Z,0.00
2023-01-03T00:50:00.695Z,0.00
2023-01-03T00:51:00.686Z,0.00
2023-01-03T00:52:00.658Z,0.00
2023-01-03T00:53:00.651Z,0.00
2023-01-03T00:54:00.559Z,0.00
2023-01-03T00:55:00.527Z,0.00
2023-01-03T00:56:00.491Z,0.00
2023-01-03T00:57:00.462Z,0.00
2023-01-03T00:58:00.429Z,0.00
2023-01-03T00:59:00.475Z,0.00
2023-01-03T01:00:00.348Z,0.00
2023-01-03T01:01:00.345Z,0.00
2023-01-03T01:02:00.481Z,0.00
2023-01-03T01:03:00.442Z,0.00
2023-01-03T01:04:00.257Z,0.00
2023-01-03T01:05:00.250Z,0.00
2023-01-03T01:06:00.141Z,0.00
2023-01-03T01:07:00.148Z,0.00
2023-01-03T01:08:00.105Z,0.00
2023-01-03T01:09:00.060Z,0.00
2023-01-03T01:10:00.011Z,0.00
2023-01-03T01:11:00.035Z,0.00
2023-01-03T01:11:59.952Z,0.00
2023-01-03T01:12:59.920Z,0.00
2023-01-03T01:13:59.887Z,0.00
2023-01-03T01:14:59.844Z,0.00
2023-01-03T01:15:59.842Z,0.00
2023-01-03T01:16:59.833Z,0.00
2023-01-03T01:17:59.737Z,0.00
2023-01-03T01:18:59.728Z,0.00
2023-01-03T01:19:59.677Z,0.00
2023-01-03T01:20:59.651Z,0.00
2023-01-03T01:21:59.602Z,0.00
2023-01-03T01:22:59.634Z,0.00
2023-01-03T01:23:59.531Z,0.00
2023-01-03T01:24:59.502Z,0.00
2023-01-03T01:25:59.472Z,0.00
2023-01-03T01:26:59.437Z,0.00
2023-01-03T01:27:59.466Z,0.00
2023-01-03T01:28:59.362Z,0.00
2023-01-03T01:29:59.322Z,0.00
2023-01-03T01:30:59.308Z,0.00
2023-01-03T01:31:59.264Z,0.00
2023-01-03T01:32:59.225Z,0.00
2023-01-03T01:33:59.231Z,0.00
2023-01-03T01:34:59.150Z,0.00
2023-01-03T01:35:59.119Z,0.00
2023-01-03T01:36:59.083Z,0.00
2023-01-03T01:37:59.074Z,0.00
2023-01-03T01:38:59.032Z,0.00
2023-01-03T01:39:59.045Z,0.00
2023-01-03T01:40:58.955Z,0.00
2023-01-03T01:41:58.929Z,0.00
2023-01-03T01:42:58.880Z,0.00
2023-01-03T01:43:58.845Z,0.00
2023-01-03T01:44:58.828Z,0.00
2023-01-03T01:45:58.844Z,0.00
2023-01-03T01:46:58.761Z,0.00
2023-01-03T01:47:58.705Z,0.00
2023-01-03T01:48:58.680Z,0.00
2023-01-03T01:49:58.709Z,0.00
2023-01-03T01:50:58.596Z,0.00
2023-01-03T01:51:58.625Z,0.00
2023-01-03T01:52:58.535Z,0.00
2023-01-03T01:53:58.517Z,0.00
2023-01-03T01:54:58.475Z,0.00
2023-01-03T01:55:58.433Z,0.00
2023-01-03T01:56:58.402Z,0.00
2023-01-03T01:57:58.433Z,0.00
2023-01-03T01:58:58.337Z,0.00
2023-01-03T01:59:58.303Z,0.00
2023-01-03T02:00:58.279Z,0.00
2023-01-03T02:01:58.362Z,0.00
2023-01-03T02:02:58.328Z,0.00
2023-01-03T02:03:58.229Z,0.00
2023-01-03T02:04:58.124Z,0.00
2023-01-03T02:05:58.095Z,0.00
2023-01-03T02:06:58.082Z,0.00
2023-01-03T02:07:58.882Z,0.00
2023-01-03T02:08:58.066Z,0.00
2023-01-03T02:09:58.037Z,0.00
2023-01-03T02:10:58.002Z,0.00
2023-01-03T02:11:57.885Z,0.00
2023-01-03T02:12:57.843Z,0.00
2023-01-03T02:13:57.820Z,0.00
2023-01-03T02:14:57.788Z,0.00
2023-01-03T02:15:57.884Z,0.00
2023-01-03T02:16:57.707Z,0.00
2023-01-03T02:17:57.670Z,0.00
2023-01-03T02:18:57.704Z,0.00
2023-01-03T02:19:57.627Z,0.00
2023-01-03T02:20:57.581Z,0.00
2023-01-03T02:21:57.623Z,0.00
2023-01-03T02:22:57.512Z,0.00
2023-01-03T02:23:57.542Z,0.00
2023-01-03T02:24:57.433Z,0.00
2023-01-03T02:25:57.407Z,0.00
2023-01-03T02:26:57.364Z,0.00
2023-01-03T02:27:57.396Z,0.00
2023-01-03T02:28:57.299Z,0.00
2023-01-03T02:29:57.329Z,0.00
2023-01-03T02:30:57.271Z,0.00
2023-01-03T02:31:57.191Z,0.00
2023-01-03T02:32:57.162Z,0.00
2023-01-03T02:33:57.203Z,0.00
2023-01-03T02:34:57.111Z,0.00
2023-01-03T02:35:57.052Z,0.00
2023-01-03T02:36:57.018Z,0.00
2023-01-03T02:37:56.982Z,0.00
2023-01-03T02:38:56.944Z,0.00
2023-01-03T02:39:56.978Z,0.00
2023-01-03T02:40:56.882Z,0.00
2023-01-03T02:41:56.844Z,0.00
2023-01-03T02:42:56.812Z,0.00
2023-01-03T02:43:56.764Z,0.00
2023-01-03T02:44:56.787Z,0.00
2023-01-03T02:45:56.772Z,0.00
2023-01-03T02:46:56.762Z,0.00
2023-01-03T02:47:56.679Z,0.00
2023-01-03T02:48:56.601Z,0.00
2023-01-03T02:49:56.565Z,0.00
2023-01-03T02:50:56.631Z,0.00
2023-01-03T02:51:56.513Z,0.00
2023-01-03T02:52:56.476Z,0.00
2023-01-03T02:53:56.476Z,0.00
2023-01-03T02:54:56.423Z,0.00
2023-01-03T02:55:56.382Z,0.00
2023-01-03T02:56:56.397Z,0.00
2023-01-03T02:57:56.274Z,0.00
2023-01-03T02:58:56.322Z,0.00
2023-01-03T02:59:56.888Z,0.00
2023-01-03T03:00:56.197Z,0.00
2023-01-03T03:01:56.264Z,0.00
2023-01-03T03:02:56.325Z,0.00
2023-01-03T03:03:56.163Z,0.00
2023-01-03T03:04:56.144Z,0.00
2023-01-03T03:05:56.016Z,0.00
2023-01-03T03:06:55.997Z,0.00
2023-01-03T03:07:55.959Z,0.00
2023-01-03T03:08:55.981Z,0.00
2023-01-03T03:09:55.942Z,0.00
2023-01-03T03:10:55.841Z,0.00
2023-01-03T03:11:55.787Z,0.00
2023-01-03T03:12:55.774Z,0.00
2023-01-03T03:13:55.717Z,0.00
2023-01-03T03:14:55.766Z,0.00
2023-01-03T03:15:55.674Z,0.00
2023-01-03T03:16:55.619Z,0.00
2023-01-03T03:17:55.589Z,0.00
2023-01-03T03:18:55.550Z,0.00
2023-01-03T03:19:55.609Z,0.00
2023-01-03T03:20:55.479Z,0.00
2023-01-03T03:21:55.433Z,0.00
2023-01-03T03:22:55.437Z,0.00
2023-01-03T03:23:55.358Z,0.00
2023-01-03T03:24:55.332Z,0.00
2023-01-03T03:25:55.437Z,0.00
2023-01-03T03:26:55.265Z,0.00
2023-01-03T03:27:55.220Z,0.00
2023-01-03T03:28:55.187Z,0.00
2023-01-03T03:29:55.161Z,0.00
2023-01-03T03:30:55.161Z,0.00
2023-01-03T03:31:55.188Z,0.00
2023-01-03T03:32:55.038Z,0.00
2023-01-03T03:33:55.017Z,0.00
2023-01-03T03:34:54.977Z,0.00
2023-01-03T03:35:54.943Z,0.00
2023-01-03T03:36:54.907Z,0.00
2023-01-03T03:37:54.926Z,0.00
2023-01-03T03:38:54.832Z,0.00
2023-01-03T03:39:54.819Z,0.00
2023-01-03T03:40:54.756Z,0.00
2023-01-03T03:41:54.733Z,0.00
2023-01-03T03:42:54.704Z,0.00
2023-01-03T03:43:54.712Z,0.00
2023-01-03T03:44:54.631Z,0.00
2023-01-03T03:45:54.595Z,0.00
2023-01-03T03:46:55.294Z,0.00
2023-01-03T03:47:54.527Z,0.00
2023-01-03T03:48:54.494Z,0.00
2023-01-03T03:49:54.440Z,0.00
2023-01-03T03:50:54.406Z,0.00
2023-01-03T03:51:54.384Z,0.00
2023-01-03T03:52:54.910Z,0.00
2023-01-03T03:53:54.335Z,0.00
2023-01-03T03:54:54.301Z,0.00
2023-01-03T03:55:54.242Z,0.00
2023-01-03T03:56:54.208Z,0.00
2023-01-03T03:57:54.260Z,0.00
2023-01-03T03:58:54.222Z,0.00
2023-01-03T03:59:54.137Z,0.00
2023-01-03T04:00:54.094Z,0.00
2023-01-03T04:01:54.189Z,0.00
2023-01-03T04:02:54.150Z,0.00
2023-01-03T04:03:54.096Z,0.00
2023-01-03T04:04:54.042Z,0.00
2023-01-03T04:05:53.872Z,0.00
2023-01-03T04:06:53.827Z,0.00
2023-01-03T04:07:53.794Z,0.00
2023-01-03T04:08:53.765Z,0.00
2023-01-03T04:09:53.730Z,0.00
2023-01-03T04:10:53.772Z,0.00
2023-01-03T04:11:53.660Z,0.00
2023-01-03T04:12:53.636Z,0.00
2023-01-03T04:13:53.588Z,0.00
2023-01-03T04:14:53.544Z,0.00
2023-01-03T04:15:53.551Z,0.00
2023-01-03T04:16:53.615Z,0.00
2023-01-03T04:17:53.452Z,0.00
2023-01-03T04:18:53.401Z,0.00
2023-01-03T04:19:53.385Z,0.00
2023-01-03T04:20:53.333Z,0.00
2023-01-03T04:21:53.302Z,0.00
2023-01-03T04:22:53.319Z,0.00
2023-01-03T04:23:53.253Z,0.00
2023-01-03T04:24:53.213Z,0.00
2023-01-03T04:25:53.161Z,0.00
2023-01-03T04:26:53.124Z,0.00
2023-01-03T04:27:53.106Z,0.00
2023-01-03T04:28:53.121Z,0.00
2023-01-03T04:29:53.082Z,0.00
2023-01-03T04:30:52.974Z,0.00
2023-01-03T04:31:52.992Z,0.00
2023-01-03T04:32:52.917Z,0.00
2023-01-03T04:33:52.889Z,0.00
2023-01-03T04:34:52.893Z,0.00
2023-01-03T04:35:52.807Z,0.00
2023-01-03T04:36:52.771Z,0.00
2023-01-03T04:37:52.732Z,0.00
2023-01-03T04:38:52.693Z,0.00
2023-01-03T04:39:52.655Z,0.00
2023-01-03T04:40:52.697Z,0.00
2023-01-03T04:41:52.625Z,0.00
2023-01-03T04:42:52.557Z,0.00
2023-01-03T04:43:52.600Z,0.00
2023-01-03T04:44:52.477Z,0.00
2023-01-03T04:45:52.516Z,0.00
2023-01-03T04:46:53.391Z,0.00
2023-01-03T04:47:52.401Z,0.00
2023-01-03T04:48:52.335Z,0.00
2023-01-03T04:49:52.335Z,0.00
2023-01-03T04:50:52.275Z,0.00
2023-01-03T04:51:52.288Z,0.00
2023-01-03T04:52:52.610Z,0.00
2023-01-03T04:53:53.031Z,0.00
2023-01-03T04:54:52.257Z,0.00
2023-01-03T04:55:52.151Z,0.00
2023-01-03T04:56:52.056Z,0.00
2023-01-03T04:57:52.029Z,0.00
2023-01-03T04:58:52.909Z,0.00
2023-01-03T04:59:51.977Z,0.00
2023-01-03T05:00:52.665Z,0.00
2023-01-03T05:01:52.317Z,0.00
2023-01-03T05:02:51.858Z,0.00
2023-01-03T05:03:51.899Z,0.00
2023-01-03T05:04:51.777Z,0.00
2023-01-03T05:05:51.739Z,0.00
2023-01-03T05:06:51.765Z,0.00
2023-01-03T05:07:51.653Z,0.00
2023-01-03T05:08:51.633Z,0.00
2023-01-03T05:09:51.574Z,0.00
2023-01-03T05:10:51.598Z,0.00
2023-01-03T05:11:51.507Z,0.00
2023-01-03T05:12:51.538Z,0.00
2023-01-03T05:13:51.456Z,0.00
2023-01-03T05:14:51.395Z,0.00
2023-01-03T05:15:51.370Z,0.00
2023-01-03T05:16:51.415Z,0.00
2023-01-03T05:17:51.293Z,0.00
2023-01-03T05:18:51.340Z,0.00
2023-01-03T05:19:51.231Z,0.00
2023-01-03T05:20:51.176Z,0.00
2023-01-03T05:21:51.153Z,0.00
2023-01-03T05:22:51.114Z,0.00
2023-01-03T05:23:51.072Z,0.00
2023-01-03T05:24:51.104Z,0.00
2023-01-03T05:25:51.014Z,0.00
2023-01-03T05:26:50.965Z,0.00
2023-01-03T05:27:50.928Z,0.00
2023-01-03T05:28:50.904Z,0.00
2023-01-03T05:29:50.920Z,0.00
2023-01-03T05:30:50.823Z,0.00
2023-01-03T05:31:50.872Z,0.00
2023-01-03T05:32:50.742Z,0.00
2023-01-03T05:33:50.715Z,0.00
2023-01-03T05:34:50.679Z,0.00
2023-01-03T05:35:50.728Z,0.00
2023-01-03T05:36:50.629Z,0.00
2023-01-03T05:37:50.570Z,0.00
2023-01-03T05:38:50.533Z,0.00
2023-01-03T05:39:50.502Z,0.00
2023-01-03T05:40:50.457Z,0.00
2023-01-03T05:41:50.490Z,0.00
2023-01-03T05:42:50.450Z,0.00
2023-01-03T05:43:50.355Z,0.00
2023-01-03T05:44:50.332Z,0.00
2023-01-03T05:45:50.399Z,0.00
2023-01-03T05:46:50.343Z,0.00
2023-01-03T05:47:50.336Z,0.00
2023-01-03T05:48:50.232Z,0.00
2023-01-03T05:49:50.242Z,0.00
2023-01-03T05:50:51.066Z,0.00
2023-01-03T05:51:50.142Z,0.00
2023-01-03T05:52:50.592Z,0.00
2023-01-03T05:53:50.100Z,0.00
2023-01-03T05:54:50.925Z,0.00
2023-01-03T05:55:49.984Z,0.00
2023-01-03T05:56:49.940Z,0.00
2023-01-03T05:57:49.901Z,0.00
2023-01-03T05:58:52.921Z,0.00
2023-01-03T05:59:49.778Z,0.00
2023-01-03T06:00:49.744Z,0.00
2023-01-03T06:01:49.839Z,0.00
2023-01-03T06:02:49.702Z,0.00
2023-01-03T06:03:49.634Z,0.00
2023-01-03T06:04:49.698Z,0.00
2023-01-03T06:05:50.574Z,0.00
2023-01-03T06:06:49.525Z,0.00
2023-01-03T06:07:49.488Z,0.00
2023-01-03T06:08:49.470Z,0.00
2023-01-03T06:09:49.405Z,0.00
2023-01-03T06:10:49.419Z,0.00
2023-01-03T06:11:49.345Z,0.00
2023-01-03T06:12:49.296Z,0.00
2023-01-03T06:13:49.271Z,0.00
2023-01-03T06:14:49.240Z,0.00
2023-01-03T06:15:49.187Z,0.00
2023-01-03T06:16:49.260Z,0.00
2023-01-03T06:17:49.137Z,0.00
2023-01-03T06:18:49.078Z,0.00
2023-01-03T06:19:49.135Z,0.00
2023-01-03T06:20:49.008Z,0.00
2023-01-03T06:21:48.971Z,0.00
2023-01-03T06:22:48.997Z,0.00
2023-01-03T06:23:48.898Z,0.00
2023-01-03T06:24:48.873Z,0.00
2023-01-03T06:25:48.820Z,0.00
2023-01-03T06:26:48.789Z,0.00
2023-01-03T06:27:48.756Z,0.00
2023-01-03T06:28:48.781Z,0.00
2023-01-03T06:29:48.682Z,0.00
2023-01-03T06:30:48.693Z,0.00
2023-01-03T06:31:48.609Z,0.00
2023-01-03T06:32:48.567Z,0.00
2023-01-03T06:33:48.567Z,0.00
2023-01-03T06:34:48.552Z,0.00
2023-01-03T06:35:48.467Z,0.00
2023-01-03T06:36:48.426Z,0.00
2023-01-03T06:37:48.387Z,0.00
2023-01-03T06:38:48.361Z,0.00
2023-01-03T06:39:48.618Z,0.00
2023-01-03T06:40:48.279Z,0.00
2023-01-03T06:41:48.307Z,4.00
2023-01-03T06:42:48.344Z,4.00
2023-01-03T06:43:48.221Z,4.00
2023-01-03T06:44:48.202Z,4.00
2023-01-03T06:45:48.294Z,4.00
2023-01-03T06:46:48.304Z,4.00
2023-01-03T06:47:48.067Z,4.00
2023-01-03T06:48:48.061Z,8.00
2023-01-03T06:49:47.987Z,4.00
2023-01-03T06:50:47.968Z,8.00
2023-01-03T06:51:47.992Z,8.00
2023-01-03T06:52:47.864Z,12.00
2023-01-03T06:53:47.798Z,12.00
2023-01-03T06:54:47.772Z,12.00
2023-01-03T06:55:54.391Z,16.00
2023-01-03T06:56:47.693Z,16.00
2023-01-03T06:57:47.718Z,20.00
2023-01-03T06:58:47.627Z,20.00
2023-01-03T06:59:47.589Z,28.00
2023-01-03T07:00:47.546Z,28.00
2023-01-03T07:01:47.584Z,32.00
2023-01-03T07:02:47.552Z,36.00
2023-01-03T07:03:47.504Z,44.00
2023-01-03T07:04:47.484Z,48.00
2023-01-03T07:05:47.370Z,56.00
2023-01-03T07:06:47.335Z,60.00
2023-01-03T07:07:47.294Z,68.00
2023-01-03T07:08:48.677Z,76.00
2023-01-03T07:09:47.283Z,84.00
2023-01-03T07:10:47.205Z,92.00
2023-01-03T07:11:47.149Z,104.00
2023-01-03T07:12:47.124Z,116.00
2023-01-03T07:13:47.064Z,124.00
2023-01-03T07:14:47.039Z,136.00
2023-01-03T07:15:47.162Z,148.00
2023-01-03T07:16:46.959Z,160.00
2023-01-03T07:17:46.930Z,176.00
2023-01-03T07:18:52.841Z,192.00
2023-01-03T07:19:46.859Z,204.00
2023-01-03T07:20:46.823Z,224.00
2023-01-03T07:21:46.853Z,240.00
2023-01-03T07:22:46.740Z,256.00
2023-01-03T07:23:46.709Z,276.00
2023-01-03T07:24:46.669Z,292.00
2023-01-03T07:25:46.626Z,312.00
2023-01-03T07:26:46.587Z,336.00
2023-01-03T07:27:46.619Z,356.00
2023-01-03T07:28:46.529Z,376.00
2023-01-03T07:29:46.520Z,404.00
2023-01-03T07:30:46.527Z,432.00
2023-01-03T07:31:46.465Z,460.00
2023-01-03T07:32:46.380Z,484.00
2023-01-03T07:33:46.412Z,512.00
2023-01-03T07:34:46.303Z,540.00
2023-01-03T07:35:46.262Z,568.00
2023-01-03T07:36:46.237Z,596.00
2023-01-03T07:37:46.209Z,624.00
2023-01-03T07:38:46.171Z,656.00
2023-01-03T07:39:46.178Z,680.00
2023-01-03T07:40:46.099Z,712.00
2023-01-03T07:41:46.038Z,740.00
2023-01-03T07:42:46.010Z,772.00
2023-01-03T07:43:45.993Z,800.00
2023-01-03T07:44:45.979Z,828.00
2023-01-03T07:45:46.047Z,856.00
2023-01-03T07:46:46.008Z,880.00
2023-01-03T07:47:45.860Z,900.00
2023-01-03T07:48:45.828Z,928.00
2023-01-03T07:49:45.774Z,956.00
2023-01-03T07:50:45.847Z,984.00
2023-01-03T07:51:45.814Z,1008.00
2023-01-03T07:52:45.677Z,1032.00
2023-01-03T07:53:45.651Z,1056.00
2023-01-03T07:54:45.581Z,1080.00
2023-01-03T07:55:45.605Z,1104.00
2023-01-03T07:56:46.438Z,1128.00
2023-01-03T07:57:45.568Z,1152.00
2023-01-03T07:58:45.453Z,1176.00
2023-01-03T07:59:45.381Z,1196.00
2023-01-03T08:00:45.347Z,1220.00
2023-01-03T08:01:45.404Z,1240.00
2023-01-03T08:02:45.479Z,1260.00
2023-01-03T08:03:45.317Z,1280.00
2023-01-03T08:04:45.332Z,1300.00
2023-01-03T08:05:45.157Z,1324.00
2023-01-03T08:06:45.127Z,1344.00
2023-01-03T08:07:45.088Z,1364.00
2023-01-03T08:08:45.051Z,1388.00
2023-01-03T08:09:45.044Z,1408.00
2023-01-03T08:10:45.100Z,1428.00
2023-01-03T08:11:44.941Z,1448.00
2023-01-03T08:12:44.917Z,1468.00
2023-01-03T08:13:44.916Z,1484.00
2023-01-03T08:14:44.840Z,1504.00
2023-01-03T08:15:44.842Z,1524.00
2023-01-03T08:16:44.843Z,1540.00
2023-01-03T08:17:44.777Z,1564.00
2023-01-03T08:18:44.692Z,1584.00
2023-01-03T08:19:45.989Z,1604.00
2023-01-03T08:20:44.611Z,1628.00
2023-01-03T08:21:44.574Z,1640.00
2023-01-03T08:22:44.607Z,1652.00
2023-01-03T08:23:44.514Z,1664.00
2023-01-03T08:24:44.467Z,1680.00
2023-01-03T08:25:44.432Z,1696.00
2023-01-03T08:26:44.401Z,1708.00
2023-01-03T08:27:50.047Z,1724.00
2023-01-03T08:28:44.407Z,1744.00
2023-01-03T08:29:44.292Z,1780.00
2023-01-03T08:30:44.260Z,1832.00
2023-01-03T08:31:44.325Z,1860.00
2023-01-03T08:32:44.171Z,1904.00
2023-01-03T08:33:44.142Z,1920.00
2023-01-03T08:34:44.214Z,1928.00
2023-01-03T08:35:44.087Z,1904.00
2023-01-03T08:36:44.077Z,1904.00
2023-01-03T08:37:43.995Z,1916.00
2023-01-03T08:38:44.072Z,1928.00
2023-01-03T08:39:43.971Z,1932.00
2023-01-03T08:40:44.048Z,1924.00
2023-01-03T08:41:43.884Z,1916.00
2023-01-03T08:42:43.961Z,1916.00
2023-01-03T08:43:43.826Z,1908.00
2023-01-03T08:44:43.761Z,1912.00
2023-01-03T08:45:43.846Z,1900.00
2023-01-03T08:46:44.183Z,1916.00
2023-01-03T08:47:43.710Z,1912.00
2023-01-03T08:48:44.461Z,1924.00
2023-01-03T08:49:50.456Z,1944.00
2023-01-03T08:50:43.552Z,1960.00
2023-01-03T08:51:43.477Z,1968.00
2023-01-03T08:52:43.519Z,1976.00
2023-01-03T08:53:43.405Z,1984.00
2023-01-03T08:54:43.377Z,2008.00
2023-01-03T08:55:43.340Z,2020.00
2023-01-03T08:56:43.310Z,2064.00
2023-01-03T08:57:43.270Z,2100.00
2023-01-03T08:58:43.275Z,2112.00
2023-01-03T08:59:43.201Z,2120.00
2023-01-03T09:00:43.153Z,2128.00
2023-01-03T09:01:43.355Z,2144.00
2023-01-03T09:02:43.312Z,2160.00
2023-01-03T09:03:43.207Z,2200.00
2023-01-03T09:04:43.083Z,2336.00
2023-01-03T09:05:42.970Z,2532.00
2023-01-03T09:06:42.932Z,2812.00
2023-01-03T09:07:42.928Z,3188.00
2023-01-03T09:08:42.867Z,3364.00
2023-01-03T09:09:42.827Z,3124.00
2023-01-03T09:10:47.482Z,2920.00
2023-01-03T09:11:42.754Z,2660.00
2023-01-03T09:12:42.758Z,2448.00
2023-01-03T09:13:42.703Z,2328.00
2023-01-03T09:14:42.667Z,2280.00
2023-01-03T09:15:42.644Z,2264.00
2023-01-03T09:16:48.586Z,2252.00
2023-01-03T09:17:42.602Z,2252.00
2023-01-03T09:18:42.497Z,2260.00
2023-01-03T09:19:42.490Z,2276.00
2023-01-03T09:20:42.455Z,2316.00
2023-01-03T09:21:42.415Z,2364.00
2023-01-03T09:22:42.427Z,2664.00
2023-01-03T09:23:42.393Z,3384.00
2023-01-03T09:24:42.319Z,3600.00
2023-01-03T09:25:42.285Z,3540.00
2023-01-03T09:26:42.236Z,3692.00
2023-01-03T09:27:42.952Z,3728.00
2023-01-03T09:28:42.270Z,3612.00
2023-01-03T09:29:42.168Z,3588.00
2023-01-03T09:30:42.952Z,3576.00
2023-01-03T09:31:42.086Z,3596.00
2023-01-03T09:32:41.998Z,3488.00
2023-01-03T09:33:41.991Z,3456.00
2023-01-03T09:34:41.988Z,3608.00
2023-01-03T09:35:41.886Z,3680.00
2023-01-03T09:36:41.851Z,3676.00
2023-01-03T09:37:48.541Z,3708.00
2023-01-03T09:38:41.771Z,3872.00
2023-01-03T09:39:41.750Z,3920.00
2023-01-03T09:40:41.786Z,4016.00
2023-01-03T09:41:41.680Z,3852.00
2023-01-03T09:42:41.641Z,4000.00
2023-01-03T09:43:41.729Z,4508.00
2023-01-03T09:44:41.567Z,4696.00
2023-01-03T09:45:41.538Z,4420.00
2023-01-03T09:46:41.620Z,3976.00
2023-01-03T09:47:41.459Z,3912.00
2023-01-03T09:48:41.756Z,4112.00
2023-01-03T09:50:04.699Z,4640.00
2023-01-03T09:51:15.829Z,4964.00
2023-01-03T09:51:41.317Z,4604.00
2023-01-03T09:52:41.291Z,3892.00
2023-01-03T09:53:41.253Z,3632.00
2023-01-03T09:54:41.264Z,3520.00
2023-01-03T09:55:41.188Z,3828.00
2023-01-03T09:56:41.151Z,4440.00
2023-01-03T09:57:41.113Z,4956.00
2023-01-03T09:58:41.079Z,5288.00
2023-01-03T09:59:41.124Z,5420.00
2023-01-03T10:00:41.068Z,4684.00
2023-01-03T10:01:41.147Z,4236.00
2023-01-03T10:02:41.092Z,4152.00
2023-01-03T10:03:46.379Z,4248.00
2023-01-03T10:04:40.871Z,4108.00
2023-01-03T10:05:40.899Z,4216.00
2023-01-03T10:06:40.810Z,4816.00
2023-01-03T10:07:40.762Z,5116.00
2023-01-03T10:08:40.735Z,4976.00
2023-01-03T10:09:40.694Z,4372.00
2023-01-03T10:10:40.680Z,3884.00
2023-01-03T10:11:40.693Z,3284.00
2023-01-03T10:12:40.590Z,2988.00
2023-01-03T10:13:40.556Z,2924.00
2023-01-03T10:14:40.532Z,2936.00
2023-01-03T10:15:40.539Z,2804.00
2023-01-03T10:16:41.193Z,2860.00
2023-01-03T10:17:40.525Z,2876.00
2023-01-03T10:18:40.438Z,2980.00
2023-01-03T10:19:40.388Z,3272.00
2023-01-03T10:20:40.366Z,3580.00
2023-01-03T10:21:40.356Z,3260.00
2023-01-03T10:22:40.290Z,2792.00
2023-01-03T10:23:40.693Z,2924.00
2023-01-03T10:24:40.237Z,3096.00
2023-01-03T10:25:40.212Z,3164.00
2023-01-03T10:26:40.222Z,2972.00
2023-01-03T10:27:40.121Z,3136.00
2023-01-03T10:28:40.047Z,3204.00
2023-01-03T10:29:40.090Z,3268.00
2023-01-03T10:30:39.995Z,3272.00
2023-01-03T10:31:39.996Z,3444.00
2023-01-03T10:32:39.919Z,3644.00
2023-01-03T10:33:39.882Z,3320.00
2023-01-03T10:34:39.868Z,3188.00
2023-01-03T10:35:39.886Z,3008.00
2023-01-03T10:36:39.775Z,3472.00
2023-01-03T10:37:39.740Z,3588.00
2023-01-03T10:38:46.377Z,3616.00
2023-01-03T10:39:42.596Z,3548.00
2023-01-03T10:40:39.636Z,3204.00
2023-01-03T10:41:39.672Z,3276.00
2023-01-03T10:42:39.620Z,3428.00
2023-01-03T10:43:39.633Z,3576.00
2023-01-03T10:44:39.553Z,3684.00
2023-01-03T10:45:43.772Z,4000.00
2023-01-03T10:46:39.555Z,3956.00
2023-01-03T10:47:39.493Z,4160.00
2023-01-03T10:48:59.951Z,4024.00
2023-01-03T10:49:39.432Z,4160.00
2023-01-03T10:50:39.405Z,4184.00
2023-01-03T10:51:42.830Z,4312.00
2023-01-03T10:52:39.301Z,4376.00
2023-01-03T10:53:39.207Z,4384.00
2023-01-03T10:54:39.164Z,4416.00
2023-01-03T10:55:39.133Z,4420.00
2023-01-03T10:56:39.107Z,3988.00
2023-01-03T10:57:39.157Z,3228.00
2023-01-03T10:58:39.043Z,3136.00
2023-01-03T10:59:39.031Z,3376.00
2023-01-03T11:00:38.965Z,4400.00
2023-01-03T11:01:39.046Z,5144.00
2023-01-03T11:02:39.014Z,4612.00
2023-01-03T11:03:39.016Z,3932.00
2023-01-03T11:04:38.835Z,3732.00
2023-01-03T11:05:38.789Z,3484.00
2023-01-03T11:06:38.782Z,3584.00
2023-01-03T11:07:38.723Z,3764.00
2023-01-03T11:08:38.709Z,3668.00
2023-01-03T11:09:38.729Z,3192.00
2023-01-03T11:10:38.638Z,3204.00
2023-01-03T11:11:38.616Z,3380.00
2023-01-03T11:12:38.555Z,3424.00
2023-01-03T11:13:38.557Z,3312.00
2023-01-03T11:14:38.503Z,3096.00
2023-01-03T11:15:39.348Z,3004.00
2023-01-03T11:16:38.467Z,3096.00
2023-01-03T11:17:38.393Z,3364.00
2023-01-03T11:18:38.366Z,3668.00
2023-01-03T11:19:38.325Z,3792.00
2023-01-03T11:20:38.297Z,3912.00
2023-01-03T11:21:38.309Z,3860.00
2023-01-03T11:22:38.364Z,4228.00
2023-01-03T11:23:38.199Z,4176.00
2023-01-03T11:24:38.158Z,3632.00
2023-01-03T11:25:38.136Z,3076.00
2023-01-03T11:26:38.092Z,2904.00
2023-01-03T11:27:38.121Z,2976.00
2023-01-03T11:28:38.119Z,2656.00
2023-01-03T11:29:38.033Z,2508.00
2023-01-03T11:30:37.977Z,2880.00
2023-01-03T11:31:37.973Z,3296.00
2023-01-03T11:32:37.916Z,3064.00
2023-01-03T11:33:37.937Z,2272.00
2023-01-03T11:35:11.592Z,2156.00
2023-01-03T11:35:37.775Z,2656.00
2023-01-03T11:36:37.740Z,3364.00
2023-01-03T11:37:38.992Z,3252.00
2023-01-03T11:38:37.700Z,2544.00
2023-01-03T11:39:37.729Z,2396.00
2023-01-03T11:40:40.481Z,2352.00
2023-01-03T11:41:37.623Z,2268.00
2023-01-03T11:42:37.586Z,2720.00
2023-01-03T11:43:37.596Z,3840.00
2023-01-03T11:44:37.536Z,4288.00
2023-01-03T11:45:40.667Z,3820.00
2023-01-03T11:46:37.491Z,3408.00
2023-01-03T11:47:37.412Z,3152.00
2023-01-03T11:48:37.349Z,3484.00
2023-01-03T11:49:38.480Z,4252.00
2023-01-03T11:50:37.321Z,3972.00
2023-01-03T11:51:37.980Z,4096.00
2023-01-03T11:52:37.209Z,5672.00
2023-01-03T11:53:37.169Z,5508.00
2023-01-03T11:54:37.128Z,4500.00
2023-01-03T11:55:37.101Z,4160.00
2023-01-03T11:56:37.072Z,3992.00
2023-01-03T11:57:37.091Z,3316.00
2023-01-03T11:58:36.998Z,3032.00
2023-01-03T11:59:36.965Z,2440.00
2023-01-03T12:00:36.925Z,2324.00
2023-01-03T12:01:39.568Z,2508.00
2023-01-03T12:02:36.909Z,3044.00
2023-01-03T12:03:36.991Z,3952.00
2023-01-03T12:04:36.866Z,5600.00
2023-01-03T12:05:36.761Z,7088.00
2023-01-03T12:06:36.719Z,5832.00
2023-01-03T12:07:47.506Z,4236.00
2023-01-03T12:08:36.656Z,3348.00
2023-01-03T12:09:36.680Z,3108.00
2023-01-03T12:10:36.592Z,3240.00
2023-01-03T12:11:36.550Z,3140.00
2023-01-03T12:12:36.521Z,3000.00
2023-01-03T12:13:36.483Z,3172.00
2023-01-03T12:14:36.463Z,3096.00
2023-01-03T12:15:36.544Z,2968.00
2023-01-03T12:16:36.440Z,2820.00
2023-01-03T12:17:36.348Z,2668.00
2023-01-03T12:18:36.321Z,2556.00
2023-01-03T12:19:36.283Z,2564.00
2023-01-03T12:20:36.249Z,2724.00
2023-01-03T12:21:36.275Z,2848.00
2023-01-03T12:22:36.184Z,2928.00
2023-01-03T12:23:36.144Z,3136.00
2023-01-03T12:24:36.107Z,3156.00
2023-01-03T12:25:36.120Z,2832.00
2023-01-03T12:26:36.042Z,2684.00
2023-01-03T12:27:36.077Z,2592.00
2023-01-03T12:28:36.054Z,2708.00
2023-01-03T12:29:35.942Z,2936.00
2023-01-03T12:30:35.914Z,2912.00
2023-01-03T12:31:35.939Z,2684.00
2023-01-03T12:32:35.841Z,2264.00
2023-01-03T12:33:35.861Z,1932.00
2023-01-03T12:34:35.815Z,1740.00
2023-01-03T12:35:35.828Z,1744.00
2023-01-03T12:36:35.709Z,1968.00
2023-01-03T12:37:35.764Z,2152.00
2023-01-03T12:38:36.205Z,2452.00
2023-01-03T12:39:41.959Z,2484.00
2023-01-03T12:40:35.586Z,2544.00
2023-01-03T12:41:35.531Z,2672.00
2023-01-03T12:42:35.509Z,2824.00
2023-01-03T12:43:35.529Z,3048.00
2023-01-03T12:44:35.432Z,3672.00